Time;durP1;ratioP1;P1;durP2;ratioP2;P2;SDS_P1;SDS_P2;PMS_P1;PMS_P2;Temp;Humidity;BMP_temperature;BMP_pressure;BME280_temperature;BME280_humidity;BME280_pressure;Samples;Min_cycle;Max_cycle;Signal;HPM_P1;HPM_P2
2022/07/15 00:00:06;;;;;;;5.68;2.70;;;20.30;99.90;;;;;;5025937;28;20474;-77
2022/07/15 00:02:31;;;;;;;4.45;2.53;;;20.30;99.90;;;;;;5031107;28;20041;-77
2022/07/15 00:04:59;;;;;;;5.22;2.90;;;20.30;99.90;;;;;;5013285;28;20029;-77
2022/07/15 00:07:25;;;;;;;7.22;2.80;;;20.30;99.90;;;;;;5030998;28;20048;-77
2022/07/15 00:12:34;;;;;;;5.97;2.70;;;20.20;99.90;;;;;;5030202;28;20032;-77
2022/07/15 00:15:00;;;;;;;5.72;2.88;;;20.20;99.90;;;;;;5008088;28;20026;-77
2022/07/15 00:17:26;;;;;;;7.03;2.97;;;20.20;99.90;;;;;;5030034;28;20104;-77
2022/07/15 00:19:52;;;;;;;6.82;3.20;;;20.20;99.90;;;;;;5027455;28;20029;-77
2022/07/15 00:22:17;;;;;;;5.65;2.90;;;20.20;99.90;;;;;;5031003;28;20386;-77
2022/07/15 00:24:43;;;;;;;9.20;3.20;;;20.20;99.90;;;;;;5030825;28;20480;-77
2022/07/15 00:27:08;;;;;;;4.97;3.17;;;20.20;99.90;;;;;;5030819;28;20021;-77
2022/07/15 00:29:34;;;;;;;6.13;2.58;;;20.20;99.90;;;;;;5030151;28;20029;-77
2022/07/15 00:31:59;;;;;;;4.82;2.95;;;20.20;99.90;;;;;;5030777;28;20482;-77
2022/07/15 00:34:25;;;;;;;5.90;2.80;;;20.10;99.90;;;;;;5030954;28;20466;-77
2022/07/15 00:36:51;;;;;;;7.63;3.40;;;20.10;99.90;;;;;;5023186;28;20166;-77
2022/07/15 00:39:16;;;;;;;5.82;2.97;;;20.10;99.90;;;;;;5029513;28;20022;-77
2022/07/15 00:41:43;;;;;;;5.00;2.70;;;20.10;99.90;;;;;;5030231;28;20597;-77
2022/07/15 00:44:09;;;;;;;5.82;2.88;;;20.00;99.90;;;;;;5013260;28;20108;-77
2022/07/15 00:46:35;;;;;;;5.40;2.75;;;20.00;99.90;;;;;;5012675;28;20120;-77
2022/07/15 00:49:04;;;;;;;6.47;3.00;;;20.00;99.90;;;;;;5029799;28;20025;-77
2022/07/15 00:51:44;;;;;;;4.18;2.78;;;20.00;99.90;;;;;;5030509;28;20049;-75
2022/07/15 00:54:13;;;;;;;6.15;2.88;;;19.90;99.90;;;;;;5030345;28;20017;-76
2022/07/15 00:56:45;;;;;;;9.80;3.90;;;19.80;99.90;;;;;;5030399;28;20029;-76
2022/07/15 00:59:13;;;;;;;6.10;3.67;;;19.70;99.90;;;;;;5029435;28;20475;-76
2022/07/15 01:01:40;;;;;;;8.60;3.60;;;19.60;99.90;;;;;;5028078;28;20037;-76
2022/07/15 01:04:06;;;;;;;5.78;3.38;;;19.50;99.90;;;;;;5030330;28;20022;-76
2022/07/15 01:06:32;;;;;;;8.60;3.33;;;19.40;99.90;;;;;;5030292;28;20362;-76
2022/07/15 01:08:58;;;;;;;5.97;3.60;;;19.30;99.90;;;;;;5031959;28;20033;-76
2022/07/15 01:11:24;;;;;;;7.13;3.25;;;19.10;99.90;;;;;;5025197;28;20028;-76
2022/07/15 01:13:50;;;;;;;9.65;3.97;;;19.10;99.90;;;;;;5030611;28;20048;-76
2022/07/15 01:16:15;;;;;;;6.03;3.50;;;19.00;99.90;;;;;;5036615;28;20021;-76
2022/07/15 01:18:41;;;;;;;5.82;3.67;;;18.90;99.90;;;;;;5036741;28;20505;-76
2022/07/15 01:21:07;;;;;;;7.35;3.85;;;18.80;99.90;;;;;;5036301;28;20107;-76
2022/07/15 01:23:32;;;;;;;6.45;3.20;;;18.70;99.90;;;;;;5036565;28;20083;-76
2022/07/15 01:25:58;;;;;;;7.90;3.60;;;18.70;99.90;;;;;;5036667;28;20029;-76
2022/07/15 01:28:24;;;;;;;9.10;3.70;;;18.60;99.90;;;;;;5036978;28;20027;-76
2022/07/15 01:30:49;;;;;;;5.35;3.33;;;18.60;99.90;;;;;;5017615;28;20395;-76
2022/07/15 01:33:15;;;;;;;7.85;3.60;;;18.50;99.90;;;;;;5022696;28;20018;-76
2022/07/15 01:35:41;;;;;;;11.30;3.40;;;18.50;99.90;;;;;;5036617;28;20482;-76
2022/07/15 01:38:07;;;;;;;8.35;3.38;;;18.50;99.90;;;;;;5036560;28;20052;-76
2022/07/15 01:40:33;;;;;;;8.40;3.65;;;18.40;99.90;;;;;;5033361;28;20025;-76
2022/07/15 01:42:59;;;;;;;8.10;3.50;;;18.40;99.90;;;;;;5036422;28;20037;-76
2022/07/15 01:45:24;;;;;;;7.68;3.10;;;18.30;99.90;;;;;;5036328;28;20029;-76
2022/07/15 01:47:52;;;;;;;7.05;3.03;;;18.30;99.90;;;;;;5036622;28;20076;-75
2022/07/15 01:50:18;;;;;;;4.43;2.75;;;18.30;99.90;;;;;;5013844;28;20392;-76
2022/07/15 01:52:44;;;;;;;8.73;3.17;;;18.20;99.90;;;;;;5036448;28;20021;-76
2022/07/15 01:55:10;;;;;;;8.50;3.22;;;18.20;99.90;;;;;;5036370;28;20014;-76
2022/07/15 01:57:36;;;;;;;8.30;3.58;;;18.20;99.90;;;;;;5036897;28;20373;-76
2022/07/15 02:00:04;;;;;;;7.80;3.25;;;18.20;99.90;;;;;;5030698;28;20034;-76
2022/07/15 02:02:29;;;;;;;7.90;2.90;;;18.10;99.90;;;;;;5036773;28;20076;-76
2022/07/15 02:04:55;;;;;;;7.22;2.70;;;18.10;99.90;;;;;;5034873;28;20693;-76
2022/07/15 02:07:21;;;;;;;8.43;3.10;;;18.10;99.90;;;;;;5038580;28;20060;-76
2022/07/15 02:09:46;;;;;;;8.52;3.47;;;18.00;99.90;;;;;;5038160;28;20041;-76
2022/07/15 02:12:12;;;;;;;5.70;3.10;;;18.00;99.90;;;;;;5038525;28;20017;-76
2022/07/15 02:14:38;;;;;;;6.28;3.08;;;18.00;99.90;;;;;;5022907;28;20018;-76
2022/07/15 02:17:03;;;;;;;7.35;3.08;;;17.90;99.90;;;;;;5031637;28;20033;-76
2022/07/15 02:19:29;;;;;;;5.25;3.17;;;17.90;99.90;;;;;;5036474;28;20086;-76
2022/07/15 02:21:55;;;;;;;8.05;3.38;;;17.90;99.90;;;;;;5032239;28;20021;-76
2022/07/15 02:24:20;;;;;;;7.88;4.00;;;17.80;99.90;;;;;;5032890;28;20462;-76
2022/07/15 02:26:46;;;;;;;9.20;3.10;;;17.80;99.90;;;;;;5015246;28;20045;-76
2022/07/15 02:29:12;;;;;;;8.60;3.38;;;17.80;99.90;;;;;;5004749;28;20033;-75
2022/07/15 02:31:38;;;;;;;4.10;3.08;;;17.70;99.90;;;;;;5033009;28;20642;-76
2022/07/15 02:34:04;;;;;;;5.85;3.03;;;17.70;99.90;;;;;;5014876;28;20036;-76
2022/07/15 02:36:29;;;;;;;8.80;3.28;;;17.70;99.90;;;;;;5032824;28;20147;-76
2022/07/15 02:38:55;;;;;;;9.55;3.03;;;17.70;99.90;;;;;;5032627;28;20424;-76
2022/07/15 02:41:21;;;;;;;5.07;3.35;;;17.60;99.90;;;;;;5032634;28;20417;-76
2022/07/15 02:43:46;;;;;;;6.47;3.53;;;17.60;99.90;;;;;;5032623;28;20099;-76
2022/07/15 02:46:12;;;;;;;8.77;3.00;;;17.60;99.90;;;;;;5032313;28;20064;-76
2022/07/15 02:48:38;;;;;;;10.75;3.70;;;17.60;99.90;;;;;;5032420;28;20018;-76
2022/07/15 02:51:04;;;;;;;6.13;3.67;;;17.50;99.90;;;;;;5030933;28;20029;-76
2022/07/15 02:53:30;;;;;;;10.85;3.40;;;17.50;99.90;;;;;;5032436;28;20040;-76
2022/07/15 02:55:59;;;;;;;5.85;3.40;;;17.40;99.90;;;;;;5032385;28;20114;-77
2022/07/15 02:58:26;;;;;;;7.68;3.40;;;17.40;99.90;;;;;;5014351;28;20030;-76
2022/07/15 03:00:52;;;;;;;6.70;3.75;;;17.40;99.90;;;;;;5014433;28;20075;-76
2022/07/15 03:03:17;;;;;;;7.00;3.13;;;17.40;99.90;;;;;;5031984;28;20124;-77
2022/07/15 03:05:43;;;;;;;7.35;3.08;;;17.30;99.90;;;;;;5032116;28;20037;-77
2022/07/15 03:08:09;;;;;;;5.63;2.78;;;17.30;99.90;;;;;;5014666;28;20710;-76
2022/07/15 03:10:34;;;;;;;6.70;2.40;;;17.20;99.90;;;;;;5033278;28;20102;-77
2022/07/15 03:13:00;;;;;;;5.07;2.60;;;17.10;99.90;;;;;;5030820;28;20029;-77
2022/07/15 03:15:26;;;;;;;6.40;2.42;;;17.00;99.90;;;;;;5017690;28;20036;-76
2022/07/15 03:17:51;;;;;;;6.97;2.70;;;17.00;99.90;;;;;;5034064;28;20034;-77
2022/07/15 03:20:17;;;;;;;11.55;2.75;;;16.90;99.90;;;;;;5033018;28;20378;-76
2022/07/15 03:22:42;;;;;;;6.32;2.30;;;16.80;99.90;;;;;;5032401;28;20063;-77
2022/07/15 03:25:08;;;;;;;5.60;2.25;;;16.70;99.90;;;;;;5032496;28;20087;-76
2022/07/15 03:27:34;;;;;;;8.95;2.15;;;16.60;99.90;;;;;;5032337;28;20033;-76
2022/07/15 03:30:01;;;;;;;7.65;1.88;;;16.60;99.90;;;;;;5028195;28;20037;-76
2022/07/15 03:32:26;;;;;;;7.30;2.00;;;16.50;99.90;;;;;;5032299;28;20534;-76
2022/07/15 03:34:52;;;;;;;4.68;2.22;;;16.40;99.90;;;;;;5014988;28;20112;-76
2022/07/15 03:37:18;;;;;;;7.40;2.40;;;16.40;99.90;;;;;;5032365;28;20109;-76
2022/07/15 03:39:44;;;;;;;9.05;2.08;;;16.30;99.90;;;;;;5030521;28;20029;-75
2022/07/15 03:42:09;;;;;;;6.28;2.85;;;16.30;99.90;;;;;;5013996;28;20036;-75
2022/07/15 03:44:35;;;;;;;6.28;2.03;;;16.20;99.90;;;;;;5013804;28;20018;-75
2022/07/15 03:47:01;;;;;;;6.57;2.60;;;16.20;99.90;;;;;;5031727;28;20029;-77
2022/07/15 03:49:27;;;;;;;7.75;2.10;;;16.20;99.90;;;;;;5031347;28;20021;-75
2022/07/15 03:51:53;;;;;;;7.82;2.38;;;16.30;99.90;;;;;;5031639;28;20029;-76
2022/07/15 03:54:18;;;;;;;6.95;2.53;;;16.30;99.90;;;;;;5024438;28;20028;-75
2022/07/15 03:56:47;;;;;;;10.30;2.40;;;16.30;99.90;;;;;;5030827;28;20108;-76
2022/07/15 03:59:16;;;;;;;5.00;2.17;;;16.30;99.90;;;;;;5030977;28;20025;-76
2022/07/15 04:01:42;;;;;;;4.90;1.83;;;16.30;99.90;;;;;;5031378;28;20049;-76
2022/07/15 04:04:08;;;;;;;5.32;2.30;;;16.40;99.90;;;;;;5027563;28;20036;-76
2022/07/15 04:06:35;;;;;;;4.90;2.17;;;16.40;99.90;;;;;;5027304;28;20049;-68
2022/07/15 04:09:01;;;;;;;13.25;2.25;;;16.40;99.90;;;;;;5030958;28;20017;-68
2022/07/15 04:11:26;;;;;;;7.30;1.98;;;16.40;99.90;;;;;;5030594;28;20025;-68
2022/07/15 04:13:52;;;;;;;10.43;2.40;;;16.40;99.90;;;;;;5024974;28;20156;-68
2022/07/15 04:16:18;;;;;;;4.95;1.88;;;16.50;99.90;;;;;;5027631;28;20027;-68
2022/07/15 04:18:43;;;;;;;7.38;1.80;;;16.50;99.90;;;;;;5030015;28;20506;-68
2022/07/15 04:21:09;;;;;;;8.32;2.10;;;16.50;99.90;;;;;;5030490;28;20052;-68
2022/07/15 04:23:35;;;;;;;9.73;2.08;;;16.50;99.90;;;;;;5030350;28;20108;-75
2022/07/15 04:26:01;;;;;;;11.02;2.55;;;16.50;99.90;;;;;;5028938;28;20100;-68
2022/07/15 04:28:26;;;;;;;4.80;2.05;;;16.50;99.90;;;;;;5029336;28;20054;-68
2022/07/15 04:30:52;;;;;;;5.18;2.00;;;16.50;99.90;;;;;;5028989;28;20040;-68
2022/07/15 04:33:19;;;;;;;11.15;2.45;;;16.50;99.90;;;;;;5029958;28;20093;-69
2022/07/15 04:35:45;;;;;;;4.93;1.90;;;16.60;99.90;;;;;;5029926;28;20060;-68
2022/07/15 04:38:11;;;;;;;8.95;2.33;;;16.60;99.90;;;;;;5029946;28;20115;-68
2022/07/15 04:40:39;;;;;;;7.47;2.22;;;16.60;99.90;;;;;;5029968;28;20490;-68
2022/07/15 04:43:05;;;;;;;6.60;2.17;;;16.60;99.90;;;;;;5029046;28;20036;-68
2022/07/15 04:45:31;;;;;;;8.32;2.10;;;16.60;99.90;;;;;;5030101;28;20039;-68
2022/07/15 04:47:57;;;;;;;4.38;2.17;;;16.60;99.90;;;;;;5030247;28;20013;-68
2022/07/15 04:53:07;;;;;;;10.77;2.80;;;16.70;99.90;;;;;;5025860;28;20029;-67
2022/07/15 04:55:33;;;;;;;7.28;1.95;;;16.70;99.90;;;;;;5028318;28;20362;-67
2022/07/15 04:57:59;;;;;;;10.55;2.35;;;16.70;99.90;;;;;;5030534;28;20022;-70
2022/07/15 05:00:26;;;;;;;4.15;2.10;;;16.80;99.90;;;;;;5027428;28;20022;-70
2022/07/15 05:02:51;;;;;;;8.85;2.75;;;16.80;99.90;;;;;;5020542;28;20095;-70
2022/07/15 05:05:18;;;;;;;5.80;2.10;;;16.80;99.90;;;;;;5025389;28;20026;-69
2022/07/15 05:07:45;;;;;;;7.53;2.40;;;16.80;99.90;;;;;;5029878;28;20021;-69
2022/07/15 05:10:11;;;;;;;5.70;2.03;;;16.90;99.90;;;;;;5030080;28;20017;-69
2022/07/15 05:12:38;;;;;;;9.40;2.35;;;17.00;99.90;;;;;;5021234;28;20018;-79
2022/07/15 05:15:04;;;;;;;9.30;2.20;;;17.10;99.90;;;;;;5028552;28;20034;-80
2022/07/15 05:17:29;;;;;;;4.82;2.00;;;17.10;99.90;;;;;;5027210;28;20102;-80
2022/07/15 05:19:56;;;;;;;9.38;2.47;;;17.10;99.90;;;;;;5027134;28;20037;-80
2022/07/15 05:22:22;;;;;;;6.22;2.15;;;17.10;99.90;;;;;;5030053;28;20025;-80
2022/07/15 05:24:48;;;;;;;5.40;1.92;;;17.20;99.90;;;;;;5010253;28;20033;-80
2022/07/15 05:27:14;;;;;;;9.73;2.33;;;17.20;99.90;;;;;;5011401;28;20029;-80
2022/07/15 05:29:39;;;;;;;5.78;2.40;;;17.20;99.90;;;;;;5029519;28;20025;-80
2022/07/15 05:32:05;;;;;;;13.20;2.55;;;17.20;99.90;;;;;;5029154;28;20056;-80
2022/07/15 05:34:31;;;;;;;6.50;2.20;;;17.20;99.90;;;;;;5026650;28;20374;-80
2022/07/15 05:36:56;;;;;;;5.35;1.88;;;17.30;99.90;;;;;;5028869;28;20026;-80
2022/07/15 05:39:22;;;;;;;7.97;2.58;;;17.30;99.90;;;;;;5007627;28;20044;-79
2022/07/15 05:41:48;;;;;;;9.45;2.22;;;17.40;99.90;;;;;;5029446;28;20132;-79
2022/07/15 05:44:13;;;;;;;10.18;2.20;;;17.50;99.90;;;;;;5029857;28;20028;-80
2022/07/15 05:46:39;;;;;;;6.78;1.92;;;17.60;99.90;;;;;;5029380;28;20029;-80
2022/07/15 05:49:05;;;;;;;9.20;2.92;;;17.70;99.90;;;;;;5026737;28;20517;-80
2022/07/15 05:51:30;;;;;;;6.15;2.03;;;17.80;99.90;;;;;;5029007;28;20466;-80
2022/07/15 05:53:56;;;;;;;4.97;2.00;;;17.80;99.90;;;;;;5022079;28;20113;-80
2022/07/15 05:56:22;;;;;;;9.02;2.17;;;17.90;99.90;;;;;;5010128;28;20371;-80
2022/07/15 05:58:47;;;;;;;8.45;2.20;;;17.90;99.90;;;;;;5031902;28;20161;-79
2022/07/15 06:01:13;;;;;;;6.93;1.85;;;17.90;99.90;;;;;;5026589;28;20045;-79
2022/07/15 06:03:39;;;;;;;6.00;1.80;;;17.90;99.90;;;;;;5031813;28;20140;-79
2022/07/15 06:06:06;;;;;;;5.45;2.28;;;18.10;99.90;;;;;;5013637;28;20125;-79
2022/07/15 06:08:32;;;;;;;8.65;2.10;;;18.10;99.90;;;;;;5031842;28;20053;-79
2022/07/15 06:10:58;;;;;;;6.38;1.85;;;18.10;99.90;;;;;;5032168;28;20022;-79
2022/07/15 06:13:23;;;;;;;7.22;1.80;;;18.20;99.90;;;;;;5027371;28;20029;-79
2022/07/15 06:15:49;;;;;;;7.55;1.95;;;18.40;99.90;;;;;;5022750;28;20033;-79
2022/07/15 06:18:15;;;;;;;7.30;2.10;;;18.50;99.90;;;;;;5032454;28;20033;-80
2022/07/15 06:20:40;;;;;;;9.85;2.20;;;18.60;99.90;;;;;;5029301;28;20112;-79
2022/07/15 06:23:06;;;;;;;8.00;2.38;;;18.60;99.90;;;;;;5026913;28;20037;-79
2022/07/15 06:25:31;;;;;;;10.60;2.25;;;18.70;99.90;;;;;;5026792;28;20055;-79
2022/07/15 06:27:57;;;;;;;6.78;1.73;;;18.70;99.90;;;;;;5030228;28;20712;-79
2022/07/15 06:30:22;;;;;;;8.13;2.10;;;18.80;99.90;;;;;;5011024;28;20436;-79
2022/07/15 06:32:48;;;;;;;8.02;2.05;;;19.00;99.90;;;;;;5029536;28;20031;-79
2022/07/15 06:35:13;;;;;;;6.90;1.80;;;19.10;99.90;;;;;;5027855;28;20029;-79
2022/07/15 06:37:39;;;;;;;8.07;2.72;;;19.10;99.90;;;;;;5016886;28;20045;-80
2022/07/15 06:40:06;;;;;;;5.57;2.05;;;19.10;99.90;;;;;;5029846;28;20104;-79
2022/07/15 06:42:32;;;;;;;6.32;1.92;;;19.20;99.90;;;;;;5028752;28;20037;-80
2022/07/15 06:44:57;;;;;;;7.65;1.83;;;19.30;99.90;;;;;;5011280;28;20037;-79
2022/07/15 06:47:23;;;;;;;6.82;1.75;;;19.40;99.90;;;;;;5029551;28;20037;-79
2022/07/15 06:49:49;;;;;;;9.07;2.17;;;19.40;99.90;;;;;;5029515;28;20087;-79
2022/07/15 06:52:16;;;;;;;8.63;1.88;;;19.50;99.90;;;;;;5029994;28;20036;-79
2022/07/15 06:54:41;;;;;;;9.27;2.15;;;19.60;99.90;;;;;;5024715;28;20099;-79
2022/07/15 06:57:07;;;;;;;5.18;1.80;;;19.70;99.90;;;;;;5023658;28;20057;-79
2022/07/15 06:59:39;;;;;;;6.47;1.90;;;19.80;99.90;;;;;;5027207;28;20029;-79
2022/07/15 07:02:05;;;;;;;5.90;1.90;;;19.80;99.90;;;;;;5027869;28;20123;-79
2022/07/15 07:04:31;;;;;;;7.45;1.98;;;19.80;99.90;;;;;;5029047;28;20092;-79
2022/07/15 07:06:57;;;;;;;7.72;2.15;;;19.80;99.90;;;;;;5028012;28;20033;-79
2022/07/15 07:09:22;;;;;;;3.67;1.63;;;19.80;99.90;;;;;;5028781;28;20151;-79
2022/07/15 07:11:48;;;;;;;6.35;2.15;;;19.90;99.90;;;;;;5028909;28;20041;-79
2022/07/15 07:14:13;;;;;;;6.05;1.98;;;19.90;99.90;;;;;;5026360;28;20067;-79
2022/07/15 07:16:39;;;;;;;11.10;2.20;;;19.90;99.90;;;;;;5030863;28;20038;-79
2022/07/15 07:19:04;;;;;;;7.32;1.92;;;20.00;99.90;;;;;;5031512;28;20030;-78
2022/07/15 07:21:31;;;;;;;6.35;1.73;;;19.90;99.90;;;;;;5031068;28;20491;-79
2022/07/15 07:23:57;;;;;;;8.07;1.90;;;19.90;99.90;;;;;;5030974;28;20052;-79
2022/07/15 07:26:22;;;;;;;7.90;2.45;;;19.90;99.90;;;;;;5031025;28;20389;-79
2022/07/15 07:28:48;;;;;;;9.27;1.85;;;20.00;99.90;;;;;;5030892;28;20030;-80
2022/07/15 07:31:14;;;;;;;13.07;2.75;;;20.00;99.90;;;;;;5030323;28;20033;-79
2022/07/15 07:33:40;;;;;;;10.55;1.90;;;20.10;99.90;;;;;;5030546;28;20119;-79
2022/07/15 07:36:07;;;;;;;7.28;2.40;;;20.20;99.90;;;;;;5030168;28;20095;-78
2022/07/15 07:38:34;;;;;;;8.35;1.73;;;20.20;99.90;;;;;;5030603;28;20034;-79
2022/07/15 07:41:00;;;;;;;5.03;1.63;;;20.30;99.90;;;;;;5028322;28;20738;-79
2022/07/15 07:43:27;;;;;;;8.75;2.22;;;20.30;99.90;;;;;;5012140;28;20033;-79
2022/07/15 07:45:53;;;;;;;4.70;2.38;;;20.30;99.90;;;;;;5012032;28;20036;-79
2022/07/15 07:48:19;;;;;;;6.20;1.92;;;20.30;99.90;;;;;;5030219;28;20413;-79
2022/07/15 07:50:48;;;;;;;11.70;1.95;;;20.40;99.90;;;;;;5011561;28;20117;-79
2022/07/15 07:53:14;;;;;;;5.03;1.60;;;20.50;99.90;;;;;;5029557;28;20053;-79
2022/07/15 07:55:40;;;;;;;4.60;1.85;;;20.50;99.90;;;;;;5011679;28;20045;-78
2022/07/15 07:58:05;;;;;;;5.13;1.90;;;20.60;99.90;;;;;;5030028;28;20040;-79
2022/07/15 08:00:32;;;;;;;14.25;2.17;;;20.60;99.90;;;;;;5027590;28;20033;-79
2022/07/15 08:02:59;;;;;;;8.55;2.20;;;20.70;99.90;;;;;;5021517;28;20053;-79
2022/07/15 08:05:25;;;;;;;4.95;1.95;;;20.70;99.90;;;;;;5007620;28;20487;-79
2022/07/15 08:08:04;;;;;;;5.32;2.15;;;20.80;99.90;;;;;;5027228;28;20076;-79
2022/07/15 08:10:30;;;;;;;7.63;2.10;;;20.80;99.90;;;;;;5029791;28;20451;-79
2022/07/15 08:12:56;;;;;;;4.90;1.77;;;20.90;99.90;;;;;;5027595;28;20041;-78
2022/07/15 08:15:21;;;;;;;5.65;2.15;;;21.00;99.90;;;;;;5018496;28;20118;-78
2022/07/15 08:17:47;;;;;;;6.93;2.00;;;21.00;99.90;;;;;;5029657;28;20132;-79
2022/07/15 08:20:13;;;;;;;4.32;1.70;;;21.10;99.90;;;;;;5028986;28;20080;-79
2022/07/15 08:22:38;;;;;;;4.93;2.00;;;21.10;99.90;;;;;;5011697;28;20112;-79
2022/07/15 08:25:08;;;;;;;7.22;1.92;;;21.10;99.90;;;;;;5029837;28;20490;-79
2022/07/15 08:27:34;;;;;;;6.93;2.03;;;21.00;99.90;;;;;;5019033;28;20092;-71
2022/07/15 08:30:00;;;;;;;10.43;2.45;;;20.90;99.90;;;;;;5013909;28;20022;-70
2022/07/15 08:32:25;;;;;;;9.43;1.95;;;20.90;99.90;;;;;;5014707;28;20104;-71
2022/07/15 08:34:51;;;;;;;7.57;2.42;;;20.90;99.90;;;;;;5026491;28;20030;-70
2022/07/15 08:37:17;;;;;;;6.25;1.98;;;21.00;99.90;;;;;;5014048;28;20531;-70
2022/07/15 08:39:42;;;;;;;12.55;1.85;;;21.10;99.90;;;;;;5032616;28;20025;-70
2022/07/15 08:42:08;;;;;;;8.85;1.98;;;21.10;99.90;;;;;;5033075;28;20485;-70
2022/07/15 08:44:35;;;;;;;3.85;1.75;;;21.10;99.90;;;;;;5032814;28;20022;-70
2022/07/15 08:47:03;;;;;;;8.57;1.98;;;21.20;99.90;;;;;;5032798;28;20540;-70
2022/07/15 08:49:30;;;;;;;5.93;2.55;;;21.30;99.90;;;;;;5032707;28;20025;-69
2022/07/15 08:51:59;;;;;;;5.00;1.85;;;21.30;99.90;;;;;;5032522;28;20095;-70
2022/07/15 08:54:24;;;;;;;5.50;2.00;;;21.50;99.90;;;;;;5025129;28;20748;-70
2022/07/15 08:56:50;;;;;;;6.25;2.30;;;21.60;99.90;;;;;;5027611;28;20040;-70
2022/07/15 08:59:17;;;;;;;6.53;1.70;;;21.60;99.90;;;;;;5032569;28;20030;-70
2022/07/15 09:01:44;;;;;;;7.15;2.00;;;21.80;99.90;;;;;;5011578;28;20045;-70
2022/07/15 09:04:10;;;;;;;6.40;1.92;;;21.70;99.90;;;;;;5023371;28;20030;-70
2022/07/15 09:06:44;;;;;;;7.60;2.10;;;21.80;99.90;;;;;;5032332;28;20377;-70
2022/07/15 09:09:29;;;;;;;4.70;1.80;;;21.80;99.90;;;;;;5032447;28;20088;-71
2022/07/15 09:12:08;;;;;;;5.57;1.88;;;21.90;99.90;;;;;;5032372;28;20090;-70
2022/07/15 09:14:36;;;;;;;7.13;1.90;;;21.90;99.90;;;;;;5032321;28;20029;-69
2022/07/15 09:17:22;;;;;;;8.18;2.22;;;22.00;99.90;;;;;;5012869;28;20026;-69
2022/07/15 09:19:59;;;;;;;6.45;2.17;;;22.00;99.90;;;;;;5012711;28;20026;-70
2022/07/15 09:22:28;;;;;;;7.03;2.25;;;22.10;99.90;;;;;;5027522;28;20040;-69
2022/07/15 09:25:09;;;;;;;9.73;2.20;;;22.20;99.90;;;;;;5030501;28;20055;-69
2022/07/15 09:27:38;;;;;;;6.65;2.55;;;22.30;99.90;;;;;;5030688;28;20439;-69
2022/07/15 09:36:21;;;;;;;7.05;2.10;;;22.90;99.90;;;;;;5022244;28;20167;-70
2022/07/15 09:38:54;;;;;;;6.43;2.08;;;23.00;98.70;;;;;;5022302;28;20075;-70
2022/07/15 09:41:37;;;;;;;6.18;2.08;;;23.00;97.90;;;;;;5006046;28;20055;-70
2022/07/15 09:44:07;;;;;;;9.00;2.90;;;23.40;97.50;;;;;;5005878;28;20760;-70
2022/07/15 09:46:49;;;;;;;9.52;2.40;;;23.60;97.20;;;;;;5024155;28;20038;-70
2022/07/15 09:49:32;;;;;;;8.65;2.42;;;23.80;95.50;;;;;;5024350;28;20032;-70
2022/07/15 09:52:16;;;;;;;7.35;2.05;;;23.90;95.80;;;;;;5021468;28;20041;-70
2022/07/15 09:54:48;;;;;;;10.73;2.80;;;24.20;95.30;;;;;;5025078;28;20126;-70
2022/07/15 09:57:18;;;;;;;6.43;1.90;;;24.40;95.00;;;;;;5026448;28;20124;-71
2022/07/15 09:59:45;;;;;;;8.30;2.33;;;24.60;95.10;;;;;;5030156;28;20021;-70
2022/07/15 10:02:12;;;;;;;6.55;1.98;;;25.00;94.10;;;;;;5009831;28;20049;-70
2022/07/15 10:04:38;;;;;;;5.50;2.05;;;25.20;94.00;;;;;;5035509;28;20021;-71
2022/07/15 10:07:05;;;;;;;8.80;2.10;;;25.40;93.60;;;;;;5028492;28;20478;-73
2022/07/15 10:09:33;;;;;;;8.65;2.20;;;25.70;92.90;;;;;;5032444;28;20025;-70
2022/07/15 10:12:17;;;;;;;6.70;2.00;;;25.90;91.60;;;;;;5031714;28;20101;-74
2022/07/15 10:15:19;;;;;;;5.53;2.00;;;25.90;92.50;;;;;;5033394;28;20025;-70
2022/07/15 10:18:16;;;;;;;6.68;2.25;;;25.60;91.20;;;;;;5025271;28;20026;-71
2022/07/15 10:21:15;;;;;;;6.85;2.10;;;25.50;92.60;;;;;;5019183;28;20060;-71
2022/07/15 10:23:56;;;;;;;6.95;2.22;;;25.60;92.60;;;;;;5033636;28;20067;-71
2022/07/15 10:26:47;;;;;;;8.43;2.50;;;25.70;92.30;;;;;;5020881;28;20036;-71
2022/07/15 10:29:15;;;;;;;6.53;2.30;;;26.00;90.50;;;;;;5032670;28;20043;-71
2022/07/15 10:31:40;;;;;;;4.68;1.63;;;26.10;91.50;;;;;;5034457;28;20028;-69
2022/07/15 10:34:11;;;;;;;4.85;2.10;;;26.20;91.20;;;;;;5036029;28;20017;-70
2022/07/15 10:36:46;;;;;;;4.93;2.10;;;26.30;90.60;;;;;;5035968;28;20021;-70
2022/07/15 10:39:16;;;;;;;7.30;1.98;;;26.50;91.80;;;;;;5035834;28;20021;-70
2022/07/15 10:41:58;;;;;;;4.95;2.10;;;26.70;91.30;;;;;;5032092;28;20034;-70
2022/07/15 10:44:33;;;;;;;8.68;2.58;;;26.90;88.10;;;;;;5018993;28;20025;-69
2022/07/15 10:47:13;;;;;;;7.85;2.47;;;26.70;86.20;;;;;;5026771;28;20025;-70
2022/07/15 10:49:44;;;;;;;6.32;2.30;;;26.50;90.10;;;;;;5033761;28;20438;-70
2022/07/15 10:52:15;;;;;;;6.25;2.33;;;26.70;88.60;;;;;;5031786;28;20037;-70
2022/07/15 10:54:43;;;;;;;5.15;2.10;;;26.70;86.70;;;;;;5028753;28;20034;-69
2022/07/15 10:57:10;;;;;;;7.05;2.08;;;26.80;89.50;;;;;;5024000;28;20032;-75
2022/07/15 10:59:40;;;;;;;6.03;2.20;;;26.90;86.50;;;;;;5026968;28;20017;-69
2022/07/15 11:02:06;;;;;;;4.45;1.90;;;27.00;84.70;;;;;;5021842;28;20076;-69
2022/07/15 11:04:33;;;;;;;11.85;2.53;;;27.00;86.20;;;;;;5023505;28;20494;-69
2022/07/15 11:07:01;;;;;;;4.50;2.17;;;26.90;88.60;;;;;;5024885;28;20087;-69
2022/07/15 11:09:57;;;;;;;4.90;1.90;;;27.20;84.90;;;;;;5027448;28;20025;-69
2022/07/15 11:12:31;;;;;;;6.95;2.47;;;27.50;85.50;;;;;;5027293;28;20044;-69
2022/07/15 11:14:57;;;;;;;8.10;2.05;;;27.90;83.90;;;;;;5028783;28;20040;-69
2022/07/15 11:17:38;;;;;;;5.75;2.17;;;27.90;82.50;;;;;;5028378;28;20370;-70
2022/07/15 11:20:08;;;;;;;5.13;2.05;;;27.90;81.30;;;;;;5024685;28;20403;-68
2022/07/15 11:22:37;;;;;;;4.63;1.95;;;27.80;82.30;;;;;;5023769;28;20087;-68
2022/07/15 11:25:05;;;;;;;6.10;2.40;;;28.20;79.50;;;;;;5026435;28;20462;-69
2022/07/15 11:27:31;;;;;;;4.60;2.10;;;27.90;80.90;;;;;;5026342;28;20041;-69
2022/07/15 11:30:03;;;;;;;7.07;2.45;;;28.20;81.60;;;;;;5027332;28;20048;-69
2022/07/15 11:32:31;;;;;;;5.53;2.30;;;28.30;79.30;;;;;;5026108;28;20095;-69
2022/07/15 11:34:59;;;;;;;6.72;2.80;;;28.50;79.40;;;;;;5026626;28;20112;-69
2022/07/15 11:37:28;;;;;;;5.47;1.92;;;28.70;78.40;;;;;;5026118;28;20624;-69
2022/07/15 11:44:29;;;;;;;5.53;2.25;;;28.80;78.10;;;;;;5022947;28;20112;-69
2022/07/15 11:45:42;;;;;;;;;;;28.70;75.40;;;;;;5026387;28;20398;-68
2022/07/15 11:48:08;;;;;;;5.10;1.90;;;28.40;75.20;;;;;;5009360;28;19921;-68
2022/07/15 11:50:37;;;;;;;4.32;1.80;;;28.30;78.50;;;;;;5028014;28;20022;-69
2022/07/15 11:53:14;;;;;;;5.70;2.30;;;28.60;80.60;;;;;;5027965;28;20037;-69
2022/07/15 11:55:58;;;;;;;6.60;2.22;;;28.90;79.20;;;;;;5024980;28;20041;-70
2022/07/15 11:58:31;;;;;;;4.53;2.20;;;29.20;75.80;;;;;;5026720;28;20053;-71
2022/07/15 12:00:58;;;;;;;6.50;2.50;;;29.40;76.70;;;;;;5025081;28;20351;-71
2022/07/15 12:03:31;;;;;;;7.88;2.20;;;29.50;74.40;;;;;;5024203;28;20057;-71
2022/07/15 12:06:10;;;;;;;5.80;1.60;;;29.60;75.50;;;;;;5022946;28;20033;-70
2022/07/15 12:08:42;;;;;;;4.32;2.00;;;29.60;74.00;;;;;;5024539;28;20029;-70
2022/07/15 12:11:18;;;;;;;5.18;1.95;;;29.70;73.90;;;;;;5023584;28;20065;-71
2022/07/15 12:13:50;;;;;;;5.88;2.30;;;29.80;73.50;;;;;;5020104;28;20032;-70
2022/07/15 12:16:20;;;;;;;3.78;1.90;;;30.10;74.70;;;;;;5017200;28;20026;-69
2022/07/15 12:18:47;;;;;;;9.35;2.40;;;30.50;71.50;;;;;;5017922;28;20120;-70
2022/07/15 12:21:13;;;;;;;6.95;2.20;;;30.60;69.80;;;;;;5020797;28;20393;-70
2022/07/15 12:23:39;;;;;;;6.63;2.20;;;30.10;69.60;;;;;;5018587;28;20435;-70
2022/07/15 12:26:10;;;;;;;4.30;2.10;;;29.90;69.80;;;;;;5021465;28;20041;-70
2022/07/15 12:28:36;;;;;;;6.75;1.98;;;29.90;70.40;;;;;;5021352;28;20021;-70
2022/07/15 12:31:03;;;;;;;4.90;2.20;;;30.10;71.10;;;;;;5020760;28;20041;-70
2022/07/15 12:33:36;;;;;;;6.03;2.13;;;30.20;70.20;;;;;;5022057;28;20036;-70
2022/07/15 12:36:20;;;;;;;6.20;2.38;;;30.30;67.70;;;;;;5019126;28;20052;-69
2022/07/15 12:39:01;;;;;;;6.25;2.53;;;30.60;68.40;;;;;;5015201;28;20060;-70
2022/07/15 12:41:27;;;;;;;4.78;2.17;;;30.60;66.40;;;;;;5019277;28;20114;-70
2022/07/15 12:43:56;;;;;;;3.95;2.28;;;30.50;70.60;;;;;;5018088;28;20033;-69
2022/07/15 12:46:58;;;;;;;6.70;2.08;;;30.60;68.00;;;;;;5021510;28;20029;-69
2022/07/15 12:49:38;;;;;;;4.93;2.30;;;30.50;69.80;;;;;;5020954;28;20037;-69
2022/07/15 12:52:22;;;;;;;4.03;1.98;;;30.90;67.80;;;;;;5020703;28;20542;-70
2022/07/15 12:54:51;;;;;;;5.43;2.17;;;30.50;66.10;;;;;;5020638;28;20017;-68
2022/07/15 12:57:25;;;;;;;6.78;2.33;;;30.60;66.90;;;;;;5020805;28;20038;-70
2022/07/15 12:59:54;;;;;;;6.90;2.38;;;31.10;64.90;;;;;;5019459;28;20536;-70
2022/07/15 13:02:19;;;;;;;3.83;2.00;;;30.90;66.50;;;;;;5025493;28;20042;-71
2022/07/15 13:04:45;;;;;;;3.55;1.95;;;30.70;66.00;;;;;;5031406;28;20029;-72